Beverly, West Virginia
Current Conditions -  °F | °C
As of 9:36 AM on Monday 26 Jan 2015 (Local Time) from KEKN Reporting Station
Light Rain Light Rain  
Wind Chill: 35°   Ceiling: 1900
Heat Index: 35°   Visibility: 3mi
Dew Point: 35°   Wind: 0mph
Humidity: 100%   Direction: NA
Pressure: 29.64"   Gusts: NA
Location:  38.84°N, 79.88°W
Report Text: KEKN 261436Z AUTO 00000KT 3SM -RA BR FEW002 OVC019 02/02 A2964 RMK AO2 P0001 T00170017 TSNO
Loading
Personal Weather Stations






























Interactive Weather Map New forecast layout! Learn more

10-Day Weather Forecast

Advertisements
Track Severe Weather on mobile